首页
METAR-TAF:

METAR-TAF

机场 :

阿尔巴尼, 喬治亞, 美国

纬度: 31-32-08N, 经度: 084-11-40W, 海拔: 60米

当前天气观测

该预报发布于6小时和1分钟前的23:53 UTC
风速3节,风向西
温度 35°C
湿度 37%
气压 1018 hPa
能見度: 16.1公里
天空无云

METAR: KABY 262353Z AUTO 28003KT 10SM CLR 35/18 A3005

时间: 01:54 (05:54 UTC)

预报

该预报发布于19分钟前的05:35 UTC
预报有效从27日的 06点(UTC)到 28日的 06点(UTC)
风速6节,风向西
能見度: 10公里
散云层高于6000英尺

TAF: KABY 270535Z 2706/2806 27006KT P6SM SCT060

超过4000个机场的气象观测和天气预报(METAR&TAF报告)。

可查询的气象台以黄色和红色小点在地图上表示。

将鼠标移到小点上方,可查看气象台名称。

然后点击查看天气观测和预报。

如需切换地图:点击带黑十字的绿色按钮放大地图;点击带横线的绿色按钮缩小地图;或者点击绿色箭头查看邻近地区的地图。


METAR-TAF: